sensor_id;sensor_type;location;lat;lon;timestamp;temperature;humidity
3548;DHT22;1788;49.400;11.092;2024-02-26T00:00:05;6.50;54.30
3548;DHT22;1788;49.400;11.092;2024-02-26T00:02:32;6.50;54.20
3548;DHT22;1788;49.400;11.092;2024-02-26T00:04:58;6.50;54.20
3548;DHT22;1788;49.400;11.092;2024-02-26T00:07:25;6.40;54.20
3548;DHT22;1788;49.400;11.092;2024-02-26T00:09:51;6.40;54.20
3548;DHT22;1788;49.400;11.092;2024-02-26T00:12:18;6.40;54.30
3548;DHT22;1788;49.400;11.092;2024-02-26T00:14:45;6.40;54.40
3548;DHT22;1788;49.400;11.092;2024-02-26T00:17:11;6.40;54.40
3548;DHT22;1788;49.400;11.092;2024-02-26T00:19:39;6.30;54.40
3548;DHT22;1788;49.400;11.092;2024-02-26T00:22:08;6.30;54.40
3548;DHT22;1788;49.400;11.092;2024-02-26T00:24:36;6.30;54.70
3548;DHT22;1788;49.400;11.092;2024-02-26T00:27:02;6.20;54.50
3548;DHT22;1788;49.400;11.092;2024-02-26T00:29:30;6.20;54.20
3548;DHT22;1788;49.400;11.092;2024-02-26T00:31:56;6.20;54.60
3548;DHT22;1788;49.400;11.092;2024-02-26T00:34:23;6.20;54.70
3548;DHT22;1788;49.400;11.092;2024-02-26T00:36:49;6.20;54.70
3548;DHT22;1788;49.400;11.092;2024-02-26T00:39:17;6.20;54.70
3548;DHT22;1788;49.400;11.092;2024-02-26T00:41:45;6.20;54.70
3548;DHT22;1788;49.400;11.092;2024-02-26T00:44:12;6.10;54.60
3548;DHT22;1788;49.400;11.092;2024-02-26T00:46:39;6.10;54.70
3548;DHT22;1788;49.400;11.092;2024-02-26T00:49:06;6.10;54.60
3548;DHT22;1788;49.400;11.092;2024-02-26T00:51:32;6.10;54.60
3548;DHT22;1788;49.400;11.092;2024-02-26T00:53:59;6.10;54.70
3548;DHT22;1788;49.400;11.092;2024-02-26T00:56:26;6.00;54.60
3548;DHT22;1788;49.400;11.092;2024-02-26T00:58:53;6.00;54.70
3548;DHT22;1788;49.400;11.092;2024-02-26T01:01:20;6.00;54.70
3548;DHT22;1788;49.400;11.092;2024-02-26T01:03:47;6.00;54.80
3548;DHT22;1788;49.400;11.092;2024-02-26T01:06:13;5.90;54.80
3548;DHT22;1788;49.400;11.092;2024-02-26T01:08:40;5.90;54.90
3548;DHT22;1788;49.400;11.092;2024-02-26T01:11:07;5.90;55.00
3548;DHT22;1788;49.400;11.092;2024-02-26T01:13:34;5.80;54.90
3548;DHT22;1788;49.400;11.092;2024-02-26T01:16:01;5.90;55.00
3548;DHT22;1788;49.400;11.092;2024-02-26T01:18:27;5.80;54.50
3548;DHT22;1788;49.400;11.092;2024-02-26T01:20:54;5.80;55.00
3548;DHT22;1788;49.400;11.092;2024-02-26T01:23:20;5.80;55.00
3548;DHT22;1788;49.400;11.092;2024-02-26T01:25:48;5.80;55.00
3548;DHT22;1788;49.400;11.092;2024-02-26T01:28:15;5.70;55.00
3548;DHT22;1788;49.400;11.092;2024-02-26T01:30:41;5.70;55.00
3548;DHT22;1788;49.400;11.092;2024-02-26T01:33:08;5.70;55.10
3548;DHT22;1788;49.400;11.092;2024-02-26T01:35:35;5.70;55.10
3548;DHT22;1788;49.400;11.092;2024-02-26T01:38:01;5.70;55.10
3548;DHT22;1788;49.400;11.092;2024-02-26T01:40:28;5.70;55.10
3548;DHT22;1788;49.400;11.092;2024-02-26T01:42:55;5.70;55.10
3548;DHT22;1788;49.400;11.092;2024-02-26T01:45:21;5.70;55.10
3548;DHT22;1788;49.400;11.092;2024-02-26T01:47:49;5.60;55.10
3548;DHT22;1788;49.400;11.092;2024-02-26T01:50:14;5.60;55.10
3548;DHT22;1788;49.400;11.092;2024-02-26T01:52:41;5.60;55.20
3548;DHT22;1788;49.400;11.092;2024-02-26T01:55:08;5.60;55.20
3548;DHT22;1788;49.400;11.092;2024-02-26T01:57:34;5.60;55.30
3548;DHT22;1788;49.400;11.092;2024-02-26T02:00:02;5.60;55.40
3548;DHT22;1788;49.400;11.092;2024-02-26T02:02:28;5.60;55.40
3548;DHT22;1788;49.400;11.092;2024-02-26T02:04:55;5.60;55.40
3548;DHT22;1788;49.400;11.092;2024-02-26T02:07:21;5.70;55.50
3548;DHT22;1788;49.400;11.092;2024-02-26T02:09:48;5.70;55.50
3548;DHT22;1788;49.400;11.092;2024-02-26T02:12:15;5.60;55.50
3548;DHT22;1788;49.400;11.092;2024-02-26T02:14:42;5.60;55.50
3548;DHT22;1788;49.400;11.092;2024-02-26T02:17:10;5.60;55.50
3548;DHT22;1788;49.400;11.092;2024-02-26T02:19:36;5.60;56.10
3548;DHT22;1788;49.400;11.092;2024-02-26T02:22:03;5.60;55.70
3548;DHT22;1788;49.400;11.092;2024-02-26T02:24:29;5.60;55.70
3548;DHT22;1788;49.400;11.092;2024-02-26T02:26:56;5.60;55.80
3548;DHT22;1788;49.400;11.092;2024-02-26T02:29:23;5.70;55.90
3548;DHT22;1788;49.400;11.092;2024-02-26T02:31:50;5.70;56.00
3548;DHT22;1788;49.400;11.092;2024-02-26T02:34:17;5.70;56.00
3548;DHT22;1788;49.400;11.092;2024-02-26T02:39:10;5.70;56.20
3548;DHT22;1788;49.400;11.092;2024-02-26T02:41:37;5.70;56.20
3548;DHT22;1788;49.400;11.092;2024-02-26T02:44:04;5.70;56.30
3548;DHT22;1788;49.400;11.092;2024-02-26T02:46:31;5.70;56.30
3548;DHT22;1788;49.400;11.092;2024-02-26T02:48:58;5.80;56.30
3548;DHT22;1788;49.400;11.092;2024-02-26T02:51:25;5.80;56.30
3548;DHT22;1788;49.400;11.092;2024-02-26T02:53:51;5.80;56.30
3548;DHT22;1788;49.400;11.092;2024-02-26T02:56:18;5.80;56.30
3548;DHT22;1788;49.400;11.092;2024-02-26T02:58:45;5.80;56.40
3548;DHT22;1788;49.400;11.092;2024-02-26T03:01:13;5.90;56.50
3548;DHT22;1788;49.400;11.092;2024-02-26T03:03:39;5.90;56.50
3548;DHT22;1788;49.400;11.092;2024-02-26T03:06:06;5.90;56.60
3548;DHT22;1788;49.400;11.092;2024-02-26T03:08:33;5.90;56.50
3548;DHT22;1788;49.400;11.092;2024-02-26T03:11:00;6.00;56.60
3548;DHT22;1788;49.400;11.092;2024-02-26T03:13:27;6.00;56.60
3548;DHT22;1788;49.400;11.092;2024-02-26T03:15:54;6.00;56.60
3548;DHT22;1788;49.400;11.092;2024-02-26T03:18:20;6.00;56.60
3548;DHT22;1788;49.400;11.092;2024-02-26T03:20:47;6.00;56.60
3548;DHT22;1788;49.400;11.092;2024-02-26T03:23:14;6.00;56.60
3548;DHT22;1788;49.400;11.092;2024-02-26T03:25:42;6.10;56.80
3548;DHT22;1788;49.400;11.092;2024-02-26T03:28:09;6.00;56.70
3548;DHT22;1788;49.400;11.092;2024-02-26T03:30:35;6.10;56.90
3548;DHT22;1788;49.400;11.092;2024-02-26T03:33:03;6.10;56.90
3548;DHT22;1788;49.400;11.092;2024-02-26T03:35:30;6.10;57.00
3548;DHT22;1788;49.400;11.092;2024-02-26T03:37:57;6.10;57.10
3548;DHT22;1788;49.400;11.092;2024-02-26T03:40:23;6.20;57.10
3548;DHT22;1788;49.400;11.092;2024-02-26T03:42:51;6.20;57.10
3548;DHT22;1788;49.400;11.092;2024-02-26T03:45:17;6.20;57.10
3548;DHT22;1788;49.400;11.092;2024-02-26T03:47:44;6.20;57.10
3548;DHT22;1788;49.400;11.092;2024-02-26T03:50:11;6.20;57.30
3548;DHT22;1788;49.400;11.092;2024-02-26T03:52:40;6.20;57.10
3548;DHT22;1788;49.400;11.092;2024-02-26T03:55:07;6.20;57.00
3548;DHT22;1788;49.400;11.092;2024-02-26T03:57:35;6.20;57.00
3548;DHT22;1788;49.400;11.092;2024-02-26T04:00:01;6.20;57.00
3548;DHT22;1788;49.400;11.092;2024-02-26T04:02:28;6.20;57.00
3548;DHT22;1788;49.400;11.092;2024-02-26T04:04:55;6.20;57.00
3548;DHT22;1788;49.400;11.092;2024-02-26T04:07:21;6.20;57.10
3548;DHT22;1788;49.400;11.092;2024-02-26T04:09:50;6.20;57.30
3548;DHT22;1788;49.400;11.092;2024-02-26T04:12:17;6.20;57.20
3548;DHT22;1788;49.400;11.092;2024-02-26T04:14:44;6.20;57.20
3548;DHT22;1788;49.400;11.092;2024-02-26T04:17:10;6.20;57.20
3548;DHT22;1788;49.400;11.092;2024-02-26T04:19:37;6.20;57.20
3548;DHT22;1788;49.400;11.092;2024-02-26T04:22:05;6.30;57.30
3548;DHT22;1788;49.400;11.092;2024-02-26T04:24:31;6.30;57.30
3548;DHT22;1788;49.400;11.092;2024-02-26T04:26:58;6.30;57.30
3548;DHT22;1788;49.400;11.092;2024-02-26T04:29:25;6.30;57.30
3548;DHT22;1788;49.400;11.092;2024-02-26T04:31:52;6.30;57.70
3548;DHT22;1788;49.400;11.092;2024-02-26T04:34:19;6.30;57.30
3548;DHT22;1788;49.400;11.092;2024-02-26T04:36:45;6.30;57.40
3548;DHT22;1788;49.400;11.092;2024-02-26T04:39:12;6.30;57.40
3548;DHT22;1788;49.400;11.092;2024-02-26T04:41:38;6.30;57.50
3548;DHT22;1788;49.400;11.092;2024-02-26T04:44:06;6.30;57.60
3548;DHT22;1788;49.400;11.092;2024-02-26T04:46:33;6.30;57.60
3548;DHT22;1788;49.400;11.092;2024-02-26T04:48:59;6.30;57.60
3548;DHT22;1788;49.400;11.092;2024-02-26T04:51:27;6.30;57.60
3548;DHT22;1788;49.400;11.092;2024-02-26T04:53:54;6.30;57.70
3548;DHT22;1788;49.400;11.092;2024-02-26T04:56:21;6.40;57.80
3548;DHT22;1788;49.400;11.092;2024-02-26T04:58:47;6.40;57.80
3548;DHT22;1788;49.400;11.092;2024-02-26T05:01:15;6.40;57.90
3548;DHT22;1788;49.400;11.092;2024-02-26T05:03:41;6.40;57.90
3548;DHT22;1788;49.400;11.092;2024-02-26T05:06:08;6.40;57.90
3548;DHT22;1788;49.400;11.092;2024-02-26T05:08:35;6.40;57.90
3548;DHT22;1788;49.400;11.092;2024-02-26T05:11:02;6.40;58.00
3548;DHT22;1788;49.400;11.092;2024-02-26T05:13:29;6.40;58.00
3548;DHT22;1788;49.400;11.092;2024-02-26T05:15:56;6.50;58.20
3548;DHT22;1788;49.400;11.092;2024-02-26T05:18:23;6.40;58.00
3548;DHT22;1788;49.400;11.092;2024-02-26T05:20:50;6.50;58.10
3548;DHT22;1788;49.400;11.092;2024-02-26T05:23:18;6.50;58.20
3548;DHT22;1788;49.400;11.092;2024-02-26T05:25:45;6.50;58.20
3548;DHT22;1788;49.400;11.092;2024-02-26T05:28:12;6.50;58.20
3548;DHT22;1788;49.400;11.092;2024-02-26T05:30:39;6.50;58.80
3548;DHT22;1788;49.400;11.092;2024-02-26T05:33:06;6.50;58.20
3548;DHT22;1788;49.400;11.092;2024-02-26T05:35:32;6.60;58.40
3548;DHT22;1788;49.400;11.092;2024-02-26T05:37:59;6.60;58.50
3548;DHT22;1788;49.400;11.092;2024-02-26T05:40:26;6.60;58.50
3548;DHT22;1788;49.400;11.092;2024-02-26T05:42:53;6.60;58.60
3548;DHT22;1788;49.400;11.092;2024-02-26T05:45:20;6.60;58.60
3548;DHT22;1788;49.400;11.092;2024-02-26T05:47:47;6.60;59.30
3548;DHT22;1788;49.400;11.092;2024-02-26T05:50:14;6.60;58.70
3548;DHT22;1788;49.400;11.092;2024-02-26T05:52:40;6.60;58.70
3548;DHT22;1788;49.400;11.092;2024-02-26T05:55:07;6.60;58.70
3548;DHT22;1788;49.400;11.092;2024-02-26T05:57:34;6.70;58.70
3548;DHT22;1788;49.400;11.092;2024-02-26T06:00:01;6.70;58.70
3548;DHT22;1788;49.400;11.092;2024-02-26T06:02:27;6.70;58.70
3548;DHT22;1788;49.400;11.092;2024-02-26T06:04:54;6.80;59.20
3548;DHT22;1788;49.400;11.092;2024-02-26T06:07:21;7.10;59.50
3548;DHT22;1788;49.400;11.092;2024-02-26T06:09:47;7.20;59.20
3548;DHT22;1788;49.400;11.092;2024-02-26T06:12:15;7.30;59.00
3548;DHT22;1788;49.400;11.092;2024-02-26T06:14:42;7.30;59.00
3548;DHT22;1788;49.400;11.092;2024-02-26T06:17:08;7.30;58.90
3548;DHT22;1788;49.400;11.092;2024-02-26T06:19:34;7.30;58.90
3548;DHT22;1788;49.400;11.092;2024-02-26T06:22:02;7.30;58.90
3548;DHT22;1788;49.400;11.092;2024-02-26T06:24:29;7.20;58.90
3548;DHT22;1788;49.400;11.092;2024-02-26T06:26:57;7.20;58.90
3548;DHT22;1788;49.400;11.092;2024-02-26T06:29:24;7.20;58.90
3548;DHT22;1788;49.400;11.092;2024-02-26T06:31:51;7.20;58.90
3548;DHT22;1788;49.400;11.092;2024-02-26T06:34:18;7.20;58.90
3548;DHT22;1788;49.400;11.092;2024-02-26T06:36:44;7.20;58.90
3548;DHT22;1788;49.400;11.092;2024-02-26T06:39:11;7.20;59.00
3548;DHT22;1788;49.400;11.092;2024-02-26T06:41:38;7.20;59.10
3548;DHT22;1788;49.400;11.092;2024-02-26T06:44:05;7.20;59.10
3548;DHT22;1788;49.400;11.092;2024-02-26T06:46:31;7.20;59.20
3548;DHT22;1788;49.400;11.092;2024-02-26T06:48:58;7.20;59.20
3548;DHT22;1788;49.400;11.092;2024-02-26T06:51:25;7.20;59.20
3548;DHT22;1788;49.400;11.092;2024-02-26T06:53:52;7.20;59.30
3548;DHT22;1788;49.400;11.092;2024-02-26T06:56:19;7.20;59.20
3548;DHT22;1788;49.400;11.092;2024-02-26T06:58:46;7.30;59.30
3548;DHT22;1788;49.400;11.092;2024-02-26T07:01:13;7.30;59.30
3548;DHT22;1788;49.400;11.092;2024-02-26T07:06:06;7.30;59.40
3548;DHT22;1788;49.400;11.092;2024-02-26T07:08:32;7.40;59.40
3548;DHT22;1788;49.400;11.092;2024-02-26T07:10:59;7.40;59.40
3548;DHT22;1788;49.400;11.092;2024-02-26T07:13:26;7.40;59.40
3548;DHT22;1788;49.400;11.092;2024-02-26T07:15:53;7.40;59.50
3548;DHT22;1788;49.400;11.092;2024-02-26T07:18:19;7.50;59.60
3548;DHT22;1788;49.400;11.092;2024-02-26T07:20:46;7.50;59.70
3548;DHT22;1788;49.400;11.092;2024-02-26T07:23:13;7.50;59.70
3548;DHT22;1788;49.400;11.092;2024-02-26T07:25:39;7.50;59.60
3548;DHT22;1788;49.400;11.092;2024-02-26T07:28:07;7.40;59.80
3548;DHT22;1788;49.400;11.092;2024-02-26T07:30:33;7.40;59.80
3548;DHT22;1788;49.400;11.092;2024-02-26T07:33:01;7.50;60.70
3548;DHT22;1788;49.400;11.092;2024-02-26T07:35:27;7.40;60.00
3548;DHT22;1788;49.400;11.092;2024-02-26T07:37:54;7.60;60.20
3548;DHT22;1788;49.400;11.092;2024-02-26T07:40:20;7.60;60.20
3548;DHT22;1788;49.400;11.092;2024-02-26T07:42:47;7.70;60.20
3548;DHT22;1788;49.400;11.092;2024-02-26T07:45:14;7.90;60.10
3548;DHT22;1788;49.400;11.092;2024-02-26T07:47:41;7.90;60.10
3548;DHT22;1788;49.400;11.092;2024-02-26T07:50:08;8.10;60.20
3548;DHT22;1788;49.400;11.092;2024-02-26T07:52:34;8.20;59.70
3548;DHT22;1788;49.400;11.092;2024-02-26T07:55:01;8.30;60.20
3548;DHT22;1788;49.400;11.092;2024-02-26T07:57:28;8.50;60.10
3548;DHT22;1788;49.400;11.092;2024-02-26T07:59:55;8.50;60.00
3548;DHT22;1788;49.400;11.092;2024-02-26T08:02:21;8.60;60.00
3548;DHT22;1788;49.400;11.092;2024-02-26T08:04:48;8.70;59.90
3548;DHT22;1788;49.400;11.092;2024-02-26T08:07:15;8.80;59.70
3548;DHT22;1788;49.400;11.092;2024-02-26T08:09:42;8.90;59.50
3548;DHT22;1788;49.400;11.092;2024-02-26T08:12:10;9.00;60.00
3548;DHT22;1788;49.400;11.092;2024-02-26T08:14:37;8.90;59.30
3548;DHT22;1788;49.400;11.092;2024-02-26T08:17:05;9.10;59.30
3548;DHT22;1788;49.400;11.092;2024-02-26T08:19:31;9.10;59.30
3548;DHT22;1788;49.400;11.092;2024-02-26T08:21:58;9.20;59.20
3548;DHT22;1788;49.400;11.092;2024-02-26T08:24:25;9.30;59.10
3548;DHT22;1788;49.400;11.092;2024-02-26T08:26:51;9.30;59.00
3548;DHT22;1788;49.400;11.092;2024-02-26T08:29:18;9.30;58.90
3548;DHT22;1788;49.400;11.092;2024-02-26T08:31:44;9.40;58.90
3548;DHT22;1788;49.400;11.092;2024-02-26T08:34:11;9.40;58.80
3548;DHT22;1788;49.400;11.092;2024-02-26T08:36:38;9.50;58.60
3548;DHT22;1788;49.400;11.092;2024-02-26T08:39:05;9.50;58.50
3548;DHT22;1788;49.400;11.092;2024-02-26T08:41:32;9.50;58.40
3548;DHT22;1788;49.400;11.092;2024-02-26T08:43:58;9.60;58.40
3548;DHT22;1788;49.400;11.092;2024-02-26T08:46:25;9.60;58.30
3548;DHT22;1788;49.400;11.092;2024-02-26T08:48:54;9.80;58.90
3548;DHT22;1788;49.400;11.092;2024-02-26T08:51:21;9.70;58.10
3548;DHT22;1788;49.400;11.092;2024-02-26T08:53:47;9.80;58.00
3548;DHT22;1788;49.400;11.092;2024-02-26T08:56:14;9.90;57.80
3548;DHT22;1788;49.400;11.092;2024-02-26T08:58:40;10.00;57.00
3548;DHT22;1788;49.400;11.092;2024-02-26T09:01:07;10.10;56.80
3548;DHT22;1788;49.400;11.092;2024-02-26T09:03:34;10.10;56.60
3548;DHT22;1788;49.400;11.092;2024-02-26T09:06:01;10.20;56.40
3548;DHT22;1788;49.400;11.092;2024-02-26T09:08:27;10.20;56.30
3548;DHT22;1788;49.400;11.092;2024-02-26T09:10:53;10.30;56.20
3548;DHT22;1788;49.400;11.092;2024-02-26T09:13:20;10.40;56.10
3548;DHT22;1788;49.400;11.092;2024-02-26T09:15:47;10.50;56.10
3548;DHT22;1788;49.400;11.092;2024-02-26T09:18:13;10.60;56.00
3548;DHT22;1788;49.400;11.092;2024-02-26T09:20:40;10.70;55.90
3548;DHT22;1788;49.400;11.092;2024-02-26T09:23:07;10.90;55.90
3548;DHT22;1788;49.400;11.092;2024-02-26T09:25:33;11.00;55.70
3548;DHT22;1788;49.400;11.092;2024-02-26T09:28:00;11.20;55.50
3548;DHT22;1788;49.400;11.092;2024-02-26T09:30:27;11.50;55.10
3548;DHT22;1788;49.400;11.092;2024-02-26T09:32:54;11.40;55.00
3548;DHT22;1788;49.400;11.092;2024-02-26T09:35:20;11.60;54.80
3548;DHT22;1788;49.400;11.092;2024-02-26T09:37:47;11.70;54.60
3548;DHT22;1788;49.400;11.092;2024-02-26T09:40:14;11.80;54.40
3548;DHT22;1788;49.400;11.092;2024-02-26T09:42:43;11.90;54.10
3548;DHT22;1788;49.400;11.092;2024-02-26T09:45:07;12.00;54.00
3548;DHT22;1788;49.400;11.092;2024-02-26T09:47:33;12.00;53.80
3548;DHT22;1788;49.400;11.092;2024-02-26T09:50:00;12.10;53.60
3548;DHT22;1788;49.400;11.092;2024-02-26T09:52:28;12.10;53.40
3548;DHT22;1788;49.400;11.092;2024-02-26T09:54:54;12.10;53.40
3548;DHT22;1788;49.400;11.092;2024-02-26T09:57:21;12.10;53.30
3548;DHT22;1788;49.400;11.092;2024-02-26T09:59:47;12.20;53.20
3548;DHT22;1788;49.400;11.092;2024-02-26T10:02:14;12.10;52.90
3548;DHT22;1788;49.400;11.092;2024-02-26T10:04:41;12.10;52.50
3548;DHT22;1788;49.400;11.092;2024-02-26T10:09:35;12.10;53.00
3548;DHT22;1788;49.400;11.092;2024-02-26T10:12:02;12.10;52.40
3548;DHT22;1788;49.400;11.092;2024-02-26T10:14:28;12.10;52.40
3548;DHT22;1788;49.400;11.092;2024-02-26T10:16:55;12.10;52.30
3548;DHT22;1788;49.400;11.092;2024-02-26T10:21:49;12.30;52.10
3548;DHT22;1788;49.400;11.092;2024-02-26T10:24:16;12.30;52.10
3548;DHT22;1788;49.400;11.092;2024-02-26T10:29:10;12.40;51.80
3548;DHT22;1788;49.400;11.092;2024-02-26T10:31:37;12.50;51.60
3548;DHT22;1788;49.400;11.092;2024-02-26T10:34:04;12.50;51.60
3548;DHT22;1788;49.400;11.092;2024-02-26T10:36:33;12.60;51.40
3548;DHT22;1788;49.400;11.092;2024-02-26T10:38:57;12.50;51.10
3548;DHT22;1788;49.400;11.092;2024-02-26T10:41:23;12.60;51.10
3548;DHT22;1788;49.400;11.092;2024-02-26T10:43:51;12.70;51.00
3548;DHT22;1788;49.400;11.092;2024-02-26T10:46:17;12.70;51.00
3548;DHT22;1788;49.400;11.092;2024-02-26T10:51:11;12.70;50.60
3548;DHT22;1788;49.400;11.092;2024-02-26T10:53:38;12.80;51.10
3548;DHT22;1788;49.400;11.092;2024-02-26T10:56:05;12.80;50.30
3548;DHT22;1788;49.400;11.092;2024-02-26T10:58:31;12.90;50.20
3548;DHT22;1788;49.400;11.092;2024-02-26T11:00:59;13.00;50.10
3548;DHT22;1788;49.400;11.092;2024-02-26T11:03:25;13.00;50.10
3548;DHT22;1788;49.400;11.092;2024-02-26T11:05:53;13.10;49.80
3548;DHT22;1788;49.400;11.092;2024-02-26T11:08:19;13.10;49.80
3548;DHT22;1788;49.400;11.092;2024-02-26T11:10:47;13.10;49.70
3548;DHT22;1788;49.400;11.092;2024-02-26T11:13:13;13.20;49.60
3548;DHT22;1788;49.400;11.092;2024-02-26T11:15:39;13.30;49.50
3548;DHT22;1788;49.400;11.092;2024-02-26T11:18:07;13.50;49.50
3548;DHT22;1788;49.400;11.092;2024-02-26T11:20:33;13.40;49.40
3548;DHT22;1788;49.400;11.092;2024-02-26T11:23:00;13.70;49.50
3548;DHT22;1788;49.400;11.092;2024-02-26T11:25:27;13.70;49.20
3548;DHT22;1788;49.400;11.092;2024-02-26T11:27:54;13.80;49.10
3548;DHT22;1788;49.400;11.092;2024-02-26T11:30:21;14.00;49.00
3548;DHT22;1788;49.400;11.092;2024-02-26T11:32:48;14.10;48.90
3548;DHT22;1788;49.400;11.092;2024-02-26T11:35:14;14.30;48.70
3548;DHT22;1788;49.400;11.092;2024-02-26T11:37:41;14.40;48.50
3548;DHT22;1788;49.400;11.092;2024-02-26T11:42:35;14.70;48.20
3548;DHT22;1788;49.400;11.092;2024-02-26T11:45:02;15.10;48.00
3548;DHT22;1788;49.400;11.092;2024-02-26T11:47:29;15.10;48.00
3548;DHT22;1788;49.400;11.092;2024-02-26T11:49:55;15.30;47.80
3548;DHT22;1788;49.400;11.092;2024-02-26T11:52:22;15.40;47.60
3548;DHT22;1788;49.400;11.092;2024-02-26T11:54:49;15.60;47.50
3548;DHT22;1788;49.400;11.092;2024-02-26T11:59:44;15.80;47.00
3548;DHT22;1788;49.400;11.092;2024-02-26T12:02:08;15.90;46.80
3548;DHT22;1788;49.400;11.092;2024-02-26T12:04:35;16.10;46.70
3548;DHT22;1788;49.400;11.092;2024-02-26T12:07:03;16.60;46.40
3548;DHT22;1788;49.400;11.092;2024-02-26T12:11:56;17.20;46.40
3548;DHT22;1788;49.400;11.092;2024-02-26T12:16:50;17.50;45.80
3548;DHT22;1788;49.400;11.092;2024-02-26T12:19:16;17.70;45.50
3548;DHT22;1788;49.400;11.092;2024-02-26T12:21:43;18.00;45.40
3548;DHT22;1788;49.400;11.092;2024-02-26T12:24:12;18.70;44.90
3548;DHT22;1788;49.400;11.092;2024-02-26T12:26:39;18.70;44.80
3548;DHT22;1788;49.400;11.092;2024-02-26T12:29:06;19.10;44.50
3548;DHT22;1788;49.400;11.092;2024-02-26T12:31:32;19.50;44.10
3548;DHT22;1788;49.400;11.092;2024-02-26T12:33:59;19.90;43.70
3548;DHT22;1788;49.400;11.092;2024-02-26T12:36:26;20.50;42.40
3548;DHT22;1788;49.400;11.092;2024-02-26T12:38:53;20.50;42.40
3548;DHT22;1788;49.400;11.092;2024-02-26T12:41:20;20.00;42.00
3548;DHT22;1788;49.400;11.092;2024-02-26T12:43:46;20.00;42.00
3548;DHT22;1788;49.400;11.092;2024-02-26T12:46:13;19.80;41.90
3548;DHT22;1788;49.400;11.092;2024-02-26T12:48:40;19.70;41.70
3548;DHT22;1788;49.400;11.092;2024-02-26T12:51:06;19.60;41.30
3548;DHT22;1788;49.400;11.092;2024-02-26T12:53:34;19.60;40.90
3548;DHT22;1788;49.400;11.092;2024-02-26T12:56:00;19.60;40.90
3548;DHT22;1788;49.400;11.092;2024-02-26T12:58:28;20.90;39.80
3548;DHT22;1788;49.400;11.092;2024-02-26T13:00:54;20.90;39.60
3548;DHT22;1788;49.400;11.092;2024-02-26T13:03:22;20.90;39.30
3548;DHT22;1788;49.400;11.092;2024-02-26T13:05:50;20.70;39.00
3548;DHT22;1788;49.400;11.092;2024-02-26T13:10:45;20.00;39.30
3548;DHT22;1788;49.400;11.092;2024-02-26T13:13:10;20.10;39.30
3548;DHT22;1788;49.400;11.092;2024-02-26T13:15:37;19.70;39.50
3548;DHT22;1788;49.400;11.092;2024-02-26T13:20:30;18.90;39.60
3548;DHT22;1788;49.400;11.092;2024-02-26T13:25:24;18.40;39.90
3548;DHT22;1788;49.400;11.092;2024-02-26T13:27:52;18.10;40.30
3548;DHT22;1788;49.400;11.092;2024-02-26T13:30:18;18.00;39.90
3548;DHT22;1788;49.400;11.092;2024-02-26T13:32:45;18.00;39.80
3548;DHT22;1788;49.400;11.092;2024-02-26T13:35:12;17.90;39.40
3548;DHT22;1788;49.400;11.092;2024-02-26T13:37:39;17.80;39.20
3548;DHT22;1788;49.400;11.092;2024-02-26T13:42:32;17.40;39.00
3548;DHT22;1788;49.400;11.092;2024-02-26T13:45:00;17.10;39.30
3548;DHT22;1788;49.400;11.092;2024-02-26T13:47:27;16.90;39.30
3548;DHT22;1788;49.400;11.092;2024-02-26T13:49:54;16.90;39.30
3548;DHT22;1788;49.400;11.092;2024-02-26T13:52:22;16.70;39.50
3548;DHT22;1788;49.400;11.092;2024-02-26T13:54:48;16.60;39.40
3548;DHT22;1788;49.400;11.092;2024-02-26T13:57:15;16.40;40.20
3548;DHT22;1788;49.400;11.092;2024-02-26T13:59:42;16.40;39.60
3548;DHT22;1788;49.400;11.092;2024-02-26T14:02:09;16.30;39.70
3548;DHT22;1788;49.400;11.092;2024-02-26T14:04:36;16.20;39.80
3548;DHT22;1788;49.400;11.092;2024-02-26T14:07:02;16.00;39.80
3548;DHT22;1788;49.400;11.092;2024-02-26T14:09:29;15.70;39.90
3548;DHT22;1788;49.400;11.092;2024-02-26T14:11:56;15.70;39.90
3548;DHT22;1788;49.400;11.092;2024-02-26T14:14:23;15.60;40.00
3548;DHT22;1788;49.400;11.092;2024-02-26T14:16:50;15.50;40.00
3548;DHT22;1788;49.400;11.092;2024-02-26T14:19:16;15.40;40.10
3548;DHT22;1788;49.400;11.092;2024-02-26T14:21:43;15.40;40.50
3548;DHT22;1788;49.400;11.092;2024-02-26T14:24:09;15.30;41.00
3548;DHT22;1788;49.400;11.092;2024-02-26T14:26:37;15.30;40.90
3548;DHT22;1788;49.400;11.092;2024-02-26T14:29:04;15.20;40.90
3548;DHT22;1788;49.400;11.092;2024-02-26T14:31:31;15.20;40.90
3548;DHT22;1788;49.400;11.092;2024-02-26T14:33:57;15.20;40.90
3548;DHT22;1788;49.400;11.092;2024-02-26T14:36:25;15.10;40.90
3548;DHT22;1788;49.400;11.092;2024-02-26T14:38:51;15.10;40.90
3548;DHT22;1788;49.400;11.092;2024-02-26T14:41:18;15.00;40.80
3548;DHT22;1788;49.400;11.092;2024-02-26T14:43:44;14.90;40.70
3548;DHT22;1788;49.400;11.092;2024-02-26T14:46:11;14.90;40.80
3548;DHT22;1788;49.400;11.092;2024-02-26T14:48:38;14.80;40.80
3548;DHT22;1788;49.400;11.092;2024-02-26T14:51:04;14.70;40.80
3548;DHT22;1788;49.400;11.092;2024-02-26T14:53:31;14.60;40.80
3548;DHT22;1788;49.400;11.092;2024-02-26T14:55:58;14.50;40.90
3548;DHT22;1788;49.400;11.092;2024-02-26T14:58:24;14.50;41.00
3548;DHT22;1788;49.400;11.092;2024-02-26T15:00:51;14.50;41.20
3548;DHT22;1788;49.400;11.092;2024-02-26T15:03:18;14.40;41.20
3548;DHT22;1788;49.400;11.092;2024-02-26T15:05:45;14.40;41.20
3548;DHT22;1788;49.400;11.092;2024-02-26T15:08:13;14.30;41.30
3548;DHT22;1788;49.400;11.092;2024-02-26T15:10:40;14.30;41.30
3548;DHT22;1788;49.400;11.092;2024-02-26T15:13:07;14.30;41.40
3548;DHT22;1788;49.400;11.092;2024-02-26T15:15:35;14.20;42.20
3548;DHT22;1788;49.400;11.092;2024-02-26T15:18:01;14.20;41.50
3548;DHT22;1788;49.400;11.092;2024-02-26T15:20:27;14.10;42.10
3548;DHT22;1788;49.400;11.092;2024-02-26T15:22:54;14.10;41.90
3548;DHT22;1788;49.400;11.092;2024-02-26T15:25:20;14.10;41.90
3548;DHT22;1788;49.400;11.092;2024-02-26T15:27:48;14.10;42.10
3548;DHT22;1788;49.400;11.092;2024-02-26T15:30:14;14.10;42.10
3548;DHT22;1788;49.400;11.092;2024-02-26T15:32:42;14.00;42.20
3548;DHT22;1788;49.400;11.092;2024-02-26T15:35:09;14.00;42.20
3548;DHT22;1788;49.400;11.092;2024-02-26T15:37:36;13.90;42.90
3548;DHT22;1788;49.400;11.092;2024-02-26T15:40:02;13.90;42.30
3548;DHT22;1788;49.400;11.092;2024-02-26T15:42:30;13.90;42.60
3548;DHT22;1788;49.400;11.092;2024-02-26T15:44:56;13.90;42.60
3548;DHT22;1788;49.400;11.092;2024-02-26T15:47:24;13.80;42.80
3548;DHT22;1788;49.400;11.092;2024-02-26T15:49:50;13.80;42.80
3548;DHT22;1788;49.400;11.092;2024-02-26T15:52:17;13.80;42.90
3548;DHT22;1788;49.400;11.092;2024-02-26T15:54:44;13.70;42.90
3548;DHT22;1788;49.400;11.092;2024-02-26T15:57:11;13.70;42.90
3548;DHT22;1788;49.400;11.092;2024-02-26T15:59:38;13.70;43.00
3548;DHT22;1788;49.400;11.092;2024-02-26T16:02:05;13.60;43.10
3548;DHT22;1788;49.400;11.092;2024-02-26T16:04:32;13.60;43.10
3548;DHT22;1788;49.400;11.092;2024-02-26T16:09:26;13.50;43.20
3548;DHT22;1788;49.400;11.092;2024-02-26T16:11:53;13.50;43.30
3548;DHT22;1788;49.400;11.092;2024-02-26T16:14:23;13.50;43.30
3548;DHT22;1788;49.400;11.092;2024-02-26T16:19:13;13.40;43.40
3548;DHT22;1788;49.400;11.092;2024-02-26T16:21:39;13.40;43.50
3548;DHT22;1788;49.400;11.092;2024-02-26T16:24:06;13.40;43.60
3548;DHT22;1788;49.400;11.092;2024-02-26T16:26:32;13.40;43.70
3548;DHT22;1788;49.400;11.092;2024-02-26T16:29:00;13.30;43.80